Route Details

Aircraft Information
Group: Trans-Pacific Ops
Types: B744, MD11
Route Data
Distance: 4065nm
Duration: 8h 30m
Origin METAR: RCTP 072355Z 04015KT 9999 SCT004 BKN006 BKN015 18/17 Q1019 NOSIG RMK A3010
Dest. METAR: PANC 072353Z 07005KT 9SM -SN OVC050 M04/M07 A2949 RMK AO2 SNB35 SLP990 P0000 60000 T10441067 11039 21072 51010
Freight Data
(for Feb 8, 2023)
Load Factor:
66%
Manifested Cargo: 133,577lbs
Financial History
Total Freight: 1,339,439lbs
Average Load: 0lbs/flt
Fuel Used: 1,375,369lbs
Avg. Fuel Used: 0lbs/flt
Fuel Expense: $1,210,656
Avg. Fuel Expense: $0
Avg. Fuel Cost: $0/lbs
Total Gross Income: $8,958,881
Pilot Pay: $1,513
Total Expenses: $1,071,691
Total Revenue: $6,660,801
Average Revenue: $0

Capitol Logistics 827




RCTP
Taiwan Taoyuan International Airport
Taipei, TW
PANC
Ted Stevens Anchorage International Airport
Anchorage, US